Time;durP1;ratioP1;P1;durP2;ratioP2;P2;SDS_P1;SDS_P2;PMS_P1;PMS_P2;Temp;Humidity;BMP_temperature;BMP_pressure;BME280_temperature;BME280_humidity;BME280_pressure;Samples;Min_cycle;Max_cycle;Signal;HPM_P1;HPM_P2
2023/10/30 00:00:26;;;;;;;6.82;1.50;;;11.00;89.50;;;;;;5099700;28;20048;-49
2023/10/30 00:02:55;;;;;;;9.57;1.95;;;10.90;89.50;;;;;;5107396;28;20024;-52
2023/10/30 00:05:23;;;;;;;8.13;2.07;;;10.90;89.60;;;;;;5093582;28;20035;-52
2023/10/30 00:07:51;;;;;;;7.78;1.40;;;10.90;89.70;;;;;;5113187;28;20253;-48
2023/10/30 00:10:18;;;;;;;6.13;1.75;;;10.80;89.70;;;;;;5094156;28;20053;-52
2023/10/30 00:12:45;;;;;;;6.10;1.73;;;10.80;89.70;;;;;;5104065;28;20039;-51
2023/10/30 00:15:13;;;;;;;8.63;1.60;;;10.80;89.80;;;;;;5109573;28;20020;-49
2023/10/30 00:17:41;;;;;;;6.47;1.80;;;10.80;89.80;;;;;;5112661;28;20156;-49
2023/10/30 00:20:09;;;;;;;6.43;1.45;;;10.80;89.80;;;;;;5112075;28;20043;-52
2023/10/30 00:22:36;;;;;;;10.07;1.85;;;10.70;89.80;;;;;;5111723;28;20356;-46
2023/10/30 00:25:05;;;;;;;11.15;2.50;;;10.70;89.90;;;;;;5110907;28;20039;-49
2023/10/30 00:27:31;;;;;;;4.70;1.20;;;10.70;89.80;;;;;;5110032;28;20085;-46
2023/10/30 00:29:59;;;;;;;8.60;1.27;;;10.60;89.70;;;;;;5112126;28;20929;-49
2023/10/30 00:32:30;;;;;;;8.95;2.22;;;10.60;89.70;;;;;;5112876;28;20532;-48
2023/10/30 00:34:57;;;;;;;6.85;1.50;;;10.60;89.80;;;;;;5112753;28;20475;-45
2023/10/30 00:37:24;;;;;;;6.60;1.58;;;10.60;89.90;;;;;;5113290;28;20084;-46
2023/10/30 00:39:50;;;;;;;8.15;1.70;;;10.60;89.80;;;;;;5115936;28;20049;-47
2023/10/30 00:42:18;;;;;;;8.77;1.40;;;10.60;89.70;;;;;;5113809;28;20035;-46
2023/10/30 00:44:45;;;;;;;7.45;1.50;;;10.60;89.70;;;;;;5111111;28;20112;-51
2023/10/30 00:47:18;;;;;;;5.88;2.60;;;10.50;89.60;;;;;;5115542;28;20028;-49
2023/10/30 00:49:45;;;;;;;12.15;1.60;;;10.50;89.60;;;;;;5116374;28;20498;-50
2023/10/30 00:52:11;;;;;;;6.20;1.92;;;10.50;89.70;;;;;;5115766;28;20475;-50
2023/10/30 00:54:39;;;;;;;9.35;1.33;;;10.50;89.50;;;;;;5116352;28;20032;-49
2023/10/30 00:57:05;;;;;;;5.43;1.30;;;10.50;89.60;;;;;;5115611;28;20392;-49
2023/10/30 00:59:34;;;;;;;4.40;1.25;;;10.40;89.40;;;;;;5115314;28;20464;-49
2023/10/30 01:02:02;;;;;;;6.22;1.25;;;10.40;89.50;;;;;;5115836;28;20030;-49
2023/10/30 01:04:31;;;;;;;11.38;2.03;;;10.40;89.50;;;;;;5114857;28;20031;-47
2023/10/30 01:06:59;;;;;;;7.00;1.63;;;10.40;89.50;;;;;;5097842;28;20070;-51
2023/10/30 01:09:28;;;;;;;5.65;1.60;;;10.30;89.60;;;;;;5114668;28;20020;-47
2023/10/30 01:11:55;;;;;;;12.52;1.90;;;10.30;89.90;;;;;;5115000;28;20066;-46
2023/10/30 01:14:21;;;;;;;8.38;2.10;;;10.20;89.80;;;;;;5115306;28;20513;-48
2023/10/30 01:16:49;;;;;;;5.18;1.17;;;10.20;89.80;;;;;;5115312;28;20115;-48
2023/10/30 01:19:17;;;;;;;5.97;1.30;;;10.20;89.70;;;;;;5111067;28;20487;-49
2023/10/30 01:21:45;;;;;;;5.35;1.75;;;10.20;89.60;;;;;;5114861;28;20318;-47
2023/10/30 01:24:13;;;;;;;6.60;1.73;;;10.10;89.70;;;;;;5097718;28;20054;-51
2023/10/30 01:26:39;;;;;;;6.85;1.58;;;10.10;89.70;;;;;;5094220;28;20381;-49
2023/10/30 01:29:08;;;;;;;7.25;1.17;;;10.20;89.70;;;;;;5114368;28;20051;-47
2023/10/30 01:31:35;;;;;;;6.68;1.92;;;10.10;89.80;;;;;;5114886;28;20483;-47
2023/10/30 01:34:00;;;;;;;9.40;1.55;;;10.10;89.80;;;;;;5114974;28;20031;-50
2023/10/30 01:36:27;;;;;;;5.68;1.08;;;10.00;89.90;;;;;;5114636;28;20053;-49
2023/10/30 01:38:54;;;;;;;6.93;2.05;;;10.00;89.80;;;;;;5114768;28;20032;-47
2023/10/30 01:41:23;;;;;;;2.13;1.13;;;10.00;89.90;;;;;;5092989;28;20031;-45
2023/10/30 01:43:50;;;;;;;3.15;1.30;;;10.10;89.80;;;;;;5114200;28;20086;-49
2023/10/30 01:46:17;;;;;;;4.93;1.52;;;10.00;89.70;;;;;;5115305;28;20031;-50
2023/10/30 01:48:46;;;;;;;5.07;1.35;;;10.00;89.60;;;;;;5114063;28;20085;-50
2023/10/30 01:51:14;;;;;;;8.40;1.25;;;10.00;89.60;;;;;;5097503;28;20048;-50
2023/10/30 01:53:41;;;;;;;5.43;1.60;;;10.00;89.50;;;;;;5096658;28;20123;-52
2023/10/30 01:56:08;;;;;;;4.65;1.42;;;9.90;89.60;;;;;;5095349;28;20153;-48
2023/10/30 01:58:36;;;;;;;5.72;1.15;;;10.00;89.60;;;;;;5085996;28;20040;-51
2023/10/30 02:01:03;;;;;;;4.25;1.63;;;10.00;89.70;;;;;;5113274;28;20107;-52
2023/10/30 02:03:30;;;;;;;5.00;1.50;;;10.00;89.60;;;;;;5096618;28;20028;-48
2023/10/30 02:05:57;;;;;;;7.22;1.80;;;10.00;89.60;;;;;;5114809;28;20402;-48
2023/10/30 02:08:24;;;;;;;4.78;1.33;;;10.00;89.60;;;;;;5114641;28;20106;-47
2023/10/30 02:10:51;;;;;;;7.03;1.63;;;10.00;89.50;;;;;;5096091;28;20050;-49
2023/10/30 02:13:17;;;;;;;5.03;1.23;;;10.00;89.30;;;;;;5114939;28;20484;-52
2023/10/30 02:15:44;;;;;;;5.53;1.58;;;10.10;89.40;;;;;;5114301;28;20020;-48
2023/10/30 02:18:12;;;;;;;6.78;1.33;;;10.00;89.30;;;;;;5096615;28;20053;-48
2023/10/30 02:20:39;;;;;;;4.43;1.80;;;10.00;89.30;;;;;;5113212;28;20042;-51
2023/10/30 02:23:06;;;;;;;7.30;1.25;;;10.00;89.30;;;;;;5096012;28;20473;-49
2023/10/30 02:25:35;;;;;;;4.78;1.30;;;10.00;89.30;;;;;;5113275;28;20051;-46
2023/10/30 02:28:01;;;;;;;6.35;1.40;;;10.00;89.20;;;;;;5113054;28;20554;-45
2023/10/30 02:30:28;;;;;;;8.32;1.35;;;10.00;89.20;;;;;;5113663;28;20107;-45
2023/10/30 02:32:56;;;;;;;6.97;1.85;;;10.00;89.10;;;;;;5079584;28;20458;-45
2023/10/30 02:35:23;;;;;;;3.20;1.70;;;9.90;89.20;;;;;;5096334;28;20032;-45
2023/10/30 02:37:51;;;;;;;6.72;1.90;;;9.90;89.20;;;;;;5113856;28;20035;-48
2023/10/30 02:40:18;;;;;;;4.75;1.30;;;9.90;89.20;;;;;;5095581;28;20110;-46
2023/10/30 02:42:51;;;;;;;4.72;1.60;;;9.90;89.20;;;;;;5098382;28;20027;-45
2023/10/30 02:45:18;;;;;;;3.40;1.38;;;9.90;89.20;;;;;;5106209;28;20032;-45
2023/10/30 02:47:47;;;;;;;5.20;1.52;;;9.90;89.40;;;;;;5097183;28;20420;-45
2023/10/30 02:50:16;;;;;;;4.88;1.48;;;9.90;89.20;;;;;;5098440;28;20076;-46
2023/10/30 02:52:42;;;;;;;7.77;1.27;;;9.90;89.20;;;;;;5113741;28;20063;-47
2023/10/30 02:55:10;;;;;;;4.63;1.33;;;9.90;89.20;;;;;;5111830;28;20064;-46
2023/10/30 02:57:38;;;;;;;3.42;1.13;;;9.90;89.20;;;;;;5110982;28;20111;-45
2023/10/30 03:00:06;;;;;;;3.40;1.42;;;9.90;89.20;;;;;;5109760;28;20028;-49
2023/10/30 03:02:33;;;;;;;5.82;1.75;;;9.90;89.10;;;;;;5107663;28;20430;-45
2023/10/30 03:05:00;;;;;;;9.77;1.30;;;9.90;89.10;;;;;;5113515;28;20020;-46
2023/10/30 03:07:27;;;;;;;5.57;1.95;;;9.90;89.10;;;;;;5111818;28;20027;-45
2023/10/30 03:09:55;;;;;;;6.55;1.40;;;9.90;89.20;;;;;;5113395;28;20019;-45
2023/10/30 03:12:21;;;;;;;5.68;1.40;;;9.90;89.20;;;;;;5110343;28;20015;-45
2023/10/30 03:14:49;;;;;;;7.82;2.22;;;9.90;89.30;;;;;;5113342;28;20099;-45
2023/10/30 03:17:16;;;;;;;6.28;1.88;;;9.90;89.40;;;;;;5113307;28;20024;-45
2023/10/30 03:19:43;;;;;;;7.60;1.70;;;9.90;89.40;;;;;;5113354;28;20077;-45
2023/10/30 03:22:10;;;;;;;6.63;1.85;;;9.90;89.50;;;;;;5090531;28;20032;-45
2023/10/30 03:24:38;;;;;;;6.35;2.05;;;9.90;89.40;;;;;;5112902;28;20035;-47
2023/10/30 03:27:09;;;;;;;4.60;1.60;;;9.90;89.30;;;;;;5103803;28;20345;-45
2023/10/30 03:29:36;;;;;;;7.15;1.63;;;9.90;89.40;;;;;;5113212;28;20113;-45
2023/10/30 03:32:03;;;;;;;8.45;1.80;;;9.90;89.30;;;;;;5113066;28;20023;-45
2023/10/30 03:34:31;;;;;;;8.07;2.00;;;9.90;89.40;;;;;;5112515;28;20038;-45
2023/10/30 03:36:59;;;;;;;6.72;2.25;;;9.90;89.50;;;;;;5092170;28;20914;-45
2023/10/30 03:39:28;;;;;;;7.40;2.40;;;9.90;89.60;;;;;;5104886;28;20105;-45
2023/10/30 03:41:59;;;;;;;6.47;1.58;;;9.90;89.60;;;;;;5101075;28;20052;-45
2023/10/30 03:44:26;;;;;;;7.38;1.48;;;9.90;89.60;;;;;;5102755;28;20090;-47
2023/10/30 03:46:53;;;;;;;6.80;1.88;;;9.90;89.60;;;;;;5105843;28;20023;-46
2023/10/30 03:49:21;;;;;;;7.05;1.67;;;9.80;89.80;;;;;;5104523;28;20024;-45
2023/10/30 03:51:49;;;;;;;5.80;2.05;;;9.90;89.80;;;;;;5101032;28;20087;-45
2023/10/30 03:54:16;;;;;;;8.07;1.50;;;9.90;89.90;;;;;;5105230;28;20475;-45
2023/10/30 03:56:45;;;;;;;6.88;1.45;;;9.90;89.90;;;;;;5103261;28;20441;-46
2023/10/30 03:59:11;;;;;;;7.05;1.92;;;9.90;90.10;;;;;;5103412;28;20036;-45
2023/10/30 04:01:39;;;;;;;7.20;1.50;;;9.90;90.00;;;;;;5088333;28;20038;-46
2023/10/30 04:04:07;;;;;;;7.97;2.53;;;9.80;90.00;;;;;;5111228;28;20431;-45
2023/10/30 04:06:37;;;;;;;9.20;1.58;;;9.80;90.10;;;;;;5094998;28;20023;-46
2023/10/30 04:09:05;;;;;;;8.02;1.63;;;9.90;90.10;;;;;;5095197;28;20023;-45
2023/10/30 04:11:34;;;;;;;11.05;2.30;;;9.80;90.20;;;;;;5093124;28;20488;-45
2023/10/30 04:14:05;;;;;;;7.97;1.55;;;9.80;90.10;;;;;;5115905;28;20023;-45
2023/10/30 04:16:33;;;;;;;10.68;2.78;;;9.80;90.20;;;;;;5116939;28;20479;-45
2023/10/30 04:19:01;;;;;;;8.20;2.10;;;9.80;90.40;;;;;;5116558;28;20496;-45
2023/10/30 04:21:30;;;;;;;7.05;1.67;;;9.80;90.20;;;;;;5117212;28;20024;-47
2023/10/30 04:23:57;;;;;;;10.95;2.20;;;9.80;90.40;;;;;;5116743;28;20052;-47
2023/10/30 04:26:25;;;;;;;14.15;1.88;;;9.80;90.40;;;;;;5115442;28;20024;-47
2023/10/30 04:28:53;;;;;;;7.10;1.50;;;9.80;90.50;;;;;;5116933;28;20062;-46
2023/10/30 04:31:21;;;;;;;8.48;2.28;;;9.80;90.50;;;;;;5117006;28;20386;-46
2023/10/30 04:33:47;;;;;;;7.40;2.15;;;9.80;90.60;;;;;;5100381;28;20534;-46
2023/10/30 04:36:14;;;;;;;8.82;2.35;;;9.80;90.60;;;;;;5117024;28;20032;-45
2023/10/30 04:38:40;;;;;;;7.28;2.05;;;9.90;90.60;;;;;;5116761;28;20039;-46
2023/10/30 04:41:08;;;;;;;6.72;2.10;;;9.90;90.40;;;;;;5116027;27;20034;-49
2023/10/30 04:43:37;;;;;;;9.00;2.00;;;9.90;90.40;;;;;;5116480;28;20038;-45
2023/10/30 04:46:06;;;;;;;14.63;2.85;;;9.90;90.30;;;;;;5116870;28;20020;-45
2023/10/30 04:48:35;;;;;;;4.78;1.88;;;9.90;90.30;;;;;;5116576;28;20501;-48
2023/10/30 04:51:02;;;;;;;5.70;1.67;;;9.90;90.30;;;;;;5108192;28;20016;-45
2023/10/30 04:53:31;;;;;;;8.93;2.22;;;9.90;90.40;;;;;;5108576;28;20108;-47
2023/10/30 04:56:02;;;;;;;16.83;2.85;;;9.90;90.50;;;;;;5115242;28;20019;-45
2023/10/30 04:58:30;;;;;;;10.02;1.85;;;9.90;90.50;;;;;;5112630;28;20034;-45
2023/10/30 05:00:55;;;;;;;11.25;2.03;;;9.90;90.50;;;;;;5114478;28;20024;-45
2023/10/30 05:03:22;;;;;;;7.68;2.28;;;9.90;90.50;;;;;;5109238;28;20094;-46
2023/10/30 05:05:50;;;;;;;6.18;2.03;;;9.90;90.60;;;;;;5114655;28;20334;-45
2023/10/30 05:08:17;;;;;;;7.40;2.60;;;9.90;90.50;;;;;;5082039;28;20085;-46
2023/10/30 05:10:44;;;;;;;14.98;1.98;;;9.90;90.50;;;;;;5115535;28;20016;-45
2023/10/30 05:13:13;;;;;;;6.38;1.75;;;9.80;90.60;;;;;;5114372;28;20099;-47
2023/10/30 05:15:41;;;;;;;8.20;1.93;;;9.80;90.80;;;;;;5116276;28;20027;-45
2023/10/30 05:18:08;;;;;;;7.25;1.67;;;9.80;90.80;;;;;;5115336;28;20092;-44
2023/10/30 05:20:33;;;;;;;5.63;1.90;;;9.90;90.80;;;;;;5115350;28;20107;-45
2023/10/30 05:23:06;;;;;;;10.10;2.53;;;9.90;90.90;;;;;;5116056;28;20115;-45
2023/10/30 05:25:33;;;;;;;9.52;1.73;;;9.80;90.90;;;;;;5095893;28;20106;-47
2023/10/30 05:28:00;;;;;;;6.72;2.08;;;9.80;91.00;;;;;;5097002;28;20031;-46
2023/10/30 05:30:30;;;;;;;9.23;1.80;;;9.90;91.00;;;;;;5113019;28;20012;-46
2023/10/30 05:32:58;;;;;;;13.68;3.05;;;9.90;90.80;;;;;;5094025;28;20114;-44
2023/10/30 05:35:25;;;;;;;6.75;1.92;;;9.90;90.90;;;;;;5114850;28;20043;-48
2023/10/30 05:37:52;;;;;;;8.85;2.67;;;9.80;90.80;;;;;;5115548;28;20028;-45
2023/10/30 05:40:23;;;;;;;7.38;2.00;;;9.80;90.90;;;;;;5115269;28;20110;-45
2023/10/30 05:42:49;;;;;;;9.70;1.77;;;9.80;91.00;;;;;;5116017;27;20043;-45
2023/10/30 05:45:16;;;;;;;11.23;2.70;;;9.80;90.90;;;;;;5105315;28;20077;-45
2023/10/30 05:47:43;;;;;;;10.57;1.77;;;9.70;90.90;;;;;;5115716;28;20390;-46
2023/10/30 05:50:11;;;;;;;10.20;2.00;;;9.70;91.00;;;;;;5114949;28;20114;-44
2023/10/30 05:52:39;;;;;;;9.88;1.65;;;9.70;91.10;;;;;;5109286;28;20031;-45
2023/10/30 05:55:07;;;;;;;13.13;2.65;;;9.70;91.10;;;;;;5111966;28;20437;-44
2023/10/30 05:57:34;;;;;;;12.25;2.00;;;9.70;91.20;;;;;;5107724;28;20028;-44
2023/10/30 06:00:09;;;;;;;7.22;2.30;;;9.70;91.20;;;;;;5111010;28;20047;-46
2023/10/30 06:02:37;;;;;;;11.50;2.22;;;9.70;91.30;;;;;;5111072;28;20036;-45
2023/10/30 06:05:08;;;;;;;10.23;2.35;;;9.70;91.40;;;;;;5109862;28;20031;-45
2023/10/30 06:07:39;;;;;;;19.65;2.70;;;9.70;91.20;;;;;;5112019;28;20063;-45
2023/10/30 06:10:06;;;;;;;14.75;1.85;;;9.70;91.20;;;;;;5111383;28;20081;-44
2023/10/30 06:12:34;;;;;;;8.70;1.90;;;9.70;91.30;;;;;;5081021;28;20019;-45
2023/10/30 06:15:01;;;;;;;6.72;1.55;;;9.80;91.30;;;;;;5092097;28;20020;-44
2023/10/30 06:17:27;;;;;;;14.27;4.65;;;9.70;91.30;;;;;;5112653;28;20024;-45
2023/10/30 06:19:54;;;;;;;8.85;2.53;;;9.70;91.20;;;;;;5113809;28;20020;-44
2023/10/30 06:22:24;;;;;;;4.72;1.80;;;9.70;91.30;;;;;;5110458;28;20424;-44
2023/10/30 06:24:51;;;;;;;;;;;9.70;91.50;;;;;;5111693;28;20047;-45
2023/10/30 06:27:19;;;;;;;9.73;2.25;;;9.70;91.50;;;;;;5106183;28;20222;-46
2023/10/30 06:29:46;;;;;;;9.63;2.00;;;9.70;91.60;;;;;;5104010;28;20035;-47
2023/10/30 06:32:13;;;;;;;11.23;3.00;;;9.80;91.70;;;;;;5111958;28;20031;-48
2023/10/30 06:34:42;;;;;;;11.38;2.88;;;9.80;91.70;;;;;;5113487;28;20053;-45
2023/10/30 06:37:10;;;;;;;11.90;1.90;;;9.80;91.70;;;;;;5110287;28;20472;-45
2023/10/30 06:39:37;;;;;;;9.18;2.45;;;9.80;91.70;;;;;;5113430;28;20032;-45
2023/10/30 06:42:05;;;;;;;5.88;2.13;;;9.80;91.50;;;;;;5105190;28;20028;-49
2023/10/30 06:44:31;;;;;;;8.02;2.40;;;9.90;91.60;;;;;;5087122;28;20028;-45
2023/10/30 06:46:59;;;;;;;9.52;2.17;;;9.90;91.40;;;;;;5109426;28;20058;-46
2023/10/30 06:49:27;;;;;;;9.05;2.38;;;9.90;91.30;;;;;;5105872;28;20038;-45
2023/10/30 06:51:55;;;;;;;12.27;2.40;;;9.90;91.20;;;;;;5107836;28;20149;-44
2023/10/30 06:54:21;;;;;;;6.90;2.33;;;9.90;91.10;;;;;;5103805;28;20142;-48
2023/10/30 06:56:48;;;;;;;14.80;3.13;;;9.90;91.00;;;;;;5095804;28;20085;-45
2023/10/30 06:59:15;;;;;;;4.72;1.60;;;9.90;91.00;;;;;;5103149;28;20028;-45
2023/10/30 07:02:00;;;;;;;14.38;4.18;;;9.90;91.00;;;;;;5103200;28;20024;-47
2023/10/30 07:04:28;;;;;;;15.35;2.28;;;9.90;91.10;;;;;;5105206;28;20106;-45
2023/10/30 07:06:58;;;;;;;9.73;2.40;;;9.90;91.20;;;;;;5112419;28;20366;-48
2023/10/30 07:09:25;;;;;;;7.45;2.20;;;9.90;91.20;;;;;;5113852;28;20447;-45
2023/10/30 07:11:51;;;;;;;9.40;2.20;;;9.90;91.30;;;;;;5105531;28;20023;-45
2023/10/30 07:14:18;;;;;;;10.25;2.08;;;9.90;91.30;;;;;;5111010;28;20074;-45
2023/10/30 07:16:44;;;;;;;13.82;1.75;;;9.90;91.40;;;;;;5112475;28;20070;-44
2023/10/30 07:19:12;;;;;;;11.57;2.78;;;9.90;91.40;;;;;;5092495;28;20480;-46
2023/10/30 07:21:39;;;;;;;10.95;2.13;;;9.90;91.40;;;;;;5107358;28;20066;-45
2023/10/30 07:24:08;;;;;;;9.95;2.85;;;9.90;91.50;;;;;;5104196;28;20487;-45
2023/10/30 07:26:36;;;;;;;10.43;3.15;;;10.00;91.50;;;;;;5108757;28;21299;-49
2023/10/30 07:29:04;;;;;;;13.77;3.53;;;10.00;91.50;;;;;;5111283;28;20024;-46
2023/10/30 07:31:35;;;;;;;12.27;1.95;;;10.00;91.60;;;;;;5102471;28;20099;-45
2023/10/30 07:34:05;;;;;;;8.73;3.05;;;10.00;91.70;;;;;;5094649;28;20015;-47
2023/10/30 07:36:33;;;;;;;15.63;2.58;;;10.10;91.70;;;;;;5108552;28;20055;-45
2023/10/30 07:39:00;;;;;;;8.82;2.30;;;10.20;91.60;;;;;;5101896;28;20039;-48
2023/10/30 07:41:26;;;;;;;13.38;2.80;;;10.20;91.50;;;;;;5094066;28;20031;-47
2023/10/30 07:43:55;;;;;;;11.40;2.05;;;10.30;91.50;;;;;;5109604;28;20038;-45
2023/10/30 07:46:20;;;;;;;14.18;2.80;;;10.40;91.30;;;;;;5089266;28;20040;-47
2023/10/30 07:48:48;;;;;;;7.18;1.95;;;10.40;91.30;;;;;;5110671;28;20039;-45
2023/10/30 07:51:16;;;;;;;7.15;2.30;;;10.50;90.90;;;;;;5112232;28;20205;-46
2023/10/30 07:53:45;;;;;;;10.43;2.45;;;10.60;90.90;;;;;;5111026;28;20119;-47
2023/10/30 07:56:14;;;;;;;8.30;2.33;;;10.60;90.70;;;;;;5109730;28;20039;-46
2023/10/30 07:58:42;;;;;;;12.05;2.85;;;10.60;90.70;;;;;;5111988;28;20453;-47
2023/10/30 08:01:11;;;;;;;10.57;2.20;;;10.80;90.80;;;;;;5108977;28;20035;-45
2023/10/30 08:03:40;;;;;;;13.05;2.60;;;10.80;90.60;;;;;;5102479;28;20077;-45
2023/10/30 08:06:09;;;;;;;9.13;1.87;;;10.90;90.70;;;;;;5112770;28;20024;-45
2023/10/30 08:08:36;;;;;;;9.43;2.95;;;11.00;90.50;;;;;;5107056;28;20028;-48
2023/10/30 08:11:03;;;;;;;10.07;2.35;;;11.10;90.20;;;;;;5100047;28;20032;-50
2023/10/30 08:13:30;;;;;;;6.10;1.85;;;11.20;89.80;;;;;;5086824;28;20019;-50
2023/10/30 08:15:58;;;;;;;8.18;2.13;;;11.40;89.80;;;;;;5104144;28;20468;-47
2023/10/30 08:18:27;;;;;;;12.68;2.38;;;11.50;89.60;;;;;;5108666;28;20042;-46
2023/10/30 08:20:56;;;;;;;10.48;2.38;;;11.60;89.10;;;;;;5106944;28;20032;-48
2023/10/30 08:23:23;;;;;;;8.13;2.17;;;11.80;88.60;;;;;;5084208;28;20102;-51
2023/10/30 08:25:49;;;;;;;10.05;2.72;;;11.90;88.40;;;;;;5086851;28;20334;-47
2023/10/30 08:28:17;;;;;;;14.43;3.13;;;12.00;87.80;;;;;;5090996;28;20024;-49
2023/10/30 08:30:44;;;;;;;7.55;1.80;;;12.10;87.50;;;;;;5083006;28;20016;-48
2023/10/30 08:33:12;;;;;;;9.38;2.38;;;12.20;87.40;;;;;;5084963;28;20028;-51
2023/10/30 08:35:40;;;;;;;11.27;2.40;;;12.30;87.30;;;;;;5089060;28;20748;-47
2023/10/30 08:38:08;;;;;;;16.45;2.03;;;12.40;87.00;;;;;;5101700;28;20032;-49
2023/10/30 08:40:36;;;;;;;9.77;2.80;;;12.50;86.60;;;;;;5090638;28;20035;-52
2023/10/30 08:43:02;;;;;;;12.07;2.38;;;12.60;86.30;;;;;;5101382;28;20028;-52
2023/10/30 08:45:29;;;;;;;9.50;2.33;;;12.70;85.50;;;;;;5089020;28;20046;-53
2023/10/30 08:48:03;;;;;;;9.38;2.20;;;12.80;85.30;;;;;;5085716;28;20547;-49
2023/10/30 08:50:35;;;;;;;8.88;2.13;;;12.80;85.70;;;;;;5085404;28;20077;-51
2023/10/30 08:53:03;;;;;;;11.57;2.58;;;12.90;85.50;;;;;;5085009;28;20039;-53
2023/10/30 08:55:30;;;;;;;6.63;2.38;;;13.10;84.80;;;;;;5080677;28;20032;-52
2023/10/30 08:57:58;;;;;;;6.63;1.95;;;13.10;84.30;;;;;;5085974;28;20040;-55
2023/10/30 09:00:30;;;;;;;17.15;3.20;;;13.20;84.00;;;;;;5087998;28;20747;-53
2023/10/30 09:02:57;;;;;;;8.25;2.30;;;13.20;83.80;;;;;;5085417;28;20055;-52
2023/10/30 09:05:27;;;;;;;12.27;2.72;;;13.40;83.80;;;;;;5083194;28;20036;-56
2023/10/30 09:07:55;;;;;;;13.38;3.17;;;13.40;83.20;;;;;;5088883;28;20020;-55
2023/10/30 09:10:26;;;;;;;12.85;3.13;;;13.50;83.20;;;;;;5064596;28;20128;-53
2023/10/30 09:12:53;;;;;;;10.20;2.20;;;13.50;82.60;;;;;;5086505;28;20090;-52
2023/10/30 09:15:21;;;;;;;9.60;2.53;;;13.70;83.10;;;;;;5089106;28;20445;-53
2023/10/30 09:17:52;;;;;;;9.52;2.25;;;13.80;82.80;;;;;;5088372;28;20046;-54
2023/10/30 09:20:21;;;;;;;10.13;2.65;;;13.80;82.40;;;;;;5091855;28;20063;-54
2023/10/30 09:22:48;;;;;;;11.13;2.67;;;13.90;82.70;;;;;;5088890;28;20036;-56
2023/10/30 09:25:14;;;;;;;13.15;2.30;;;13.90;82.40;;;;;;5100587;28;20043;-51
2023/10/30 09:27:41;;;;;;;6.95;1.80;;;14.00;82.10;;;;;;5105786;28;20024;-53
2023/10/30 09:30:08;;;;;;;10.80;2.40;;;14.00;82.00;;;;;;5085100;28;20024;-56
2023/10/30 09:32:34;;;;;;;8.60;2.45;;;14.10;80.50;;;;;;5106223;27;20456;-51
2023/10/30 09:35:03;;;;;;;11.35;2.60;;;14.10;81.80;;;;;;5111390;28;20043;-55
2023/10/30 09:37:31;;;;;;;9.07;2.00;;;14.30;80.60;;;;;;5106410;27;20094;-55
2023/10/30 09:40:03;;;;;;;11.10;2.83;;;14.30;81.10;;;;;;5111638;27;20031;-56
2023/10/30 09:42:32;;;;;;;11.93;2.85;;;14.30;80.50;;;;;;5108341;27;20027;-56
2023/10/30 09:44:59;;;;;;;11.95;2.40;;;14.30;80.80;;;;;;5101822;27;20038;-56
2023/10/30 09:47:26;;;;;;;12.73;2.70;;;14.40;81.30;;;;;;5116170;27;20172;-56
2023/10/30 09:49:55;;;;;;;10.20;2.55;;;14.30;79.90;;;;;;5107540;27;20050;-56
2023/10/30 09:52:27;;;;;;;9.57;2.45;;;14.50;80.00;;;;;;5103030;28;20038;-54
2023/10/30 09:55:08;;;;;;;7.50;2.13;;;14.60;80.50;;;;;;5088831;28;20050;-56
2023/10/30 09:57:37;;;;;;;12.35;2.83;;;14.70;79.10;;;;;;5110930;28;20092;-55
2023/10/30 10:00:13;;;;;;;9.55;2.03;;;14.80;78.70;;;;;;5089189;28;20749;-55
2023/10/30 10:02:43;;;;;;;9.55;2.30;;;14.80;79.10;;;;;;5108270;27;20028;-53
2023/10/30 10:05:16;;;;;;;8.43;1.73;;;14.70;78.60;;;;;;5091435;28;20461;-55
2023/10/30 10:07:45;;;;;;;6.90;1.63;;;14.70;78.70;;;;;;5117470;27;20046;-54
2023/10/30 10:10:17;;;;;;;9.83;2.10;;;14.80;78.50;;;;;;5089774;28;20035;-56
2023/10/30 10:12:48;;;;;;;12.40;2.95;;;14.70;79.30;;;;;;5105742;27;20024;-56
2023/10/30 10:15:15;;;;;;;;;;;14.80;79.30;;;;;;5101394;27;20028;-55
2023/10/30 10:17:46;;;;;;;11.68;2.50;;;14.80;78.70;;;;;;5108889;27;19912;-56
2023/10/30 10:20:13;;;;;;;9.48;1.83;;;14.80;78.30;;;;;;5084823;28;20094;-55
2023/10/30 10:22:39;;;;;;;7.60;2.22;;;14.80;78.60;;;;;;5100095;28;20046;-56
2023/10/30 10:25:10;;;;;;;12.45;1.90;;;14.70;77.80;;;;;;5106710;28;20043;-54
2023/10/30 10:27:46;;;;;;;7.88;1.92;;;14.70;77.20;;;;;;5109087;27;20623;-55
2023/10/30 10:30:15;;;;;;;8.13;2.60;;;14.60;77.80;;;;;;5105757;27;20035;-55
2023/10/30 10:32:42;;;;;;;9.75;2.70;;;14.70;78.40;;;;;;5109616;28;20019;-56
2023/10/30 10:35:12;;;;;;;10.95;2.42;;;14.60;77.90;;;;;;5110339;28;20193;-54
2023/10/30 10:37:41;;;;;;;8.50;1.92;;;14.70;77.00;;;;;;5109634;27;20038;-55
2023/10/30 10:40:19;;;;;;;6.10;1.73;;;14.70;77.10;;;;;;5108385;28;20111;-54
2023/10/30 10:42:47;;;;;;;10.50;1.95;;;14.60;77.90;;;;;;5076969;28;20298;-55
2023/10/30 10:45:15;;;;;;;8.13;1.98;;;14.70;77.70;;;;;;5106218;27;20043;-52
2023/10/30 10:47:43;;;;;;;11.38;2.58;;;14.70;78.00;;;;;;5106974;27;20019;-53
2023/10/30 10:50:09;;;;;;;4.50;1.40;;;14.80;77.60;;;;;;5110682;28;20028;-55
2023/10/30 10:52:39;;;;;;;7.47;2.03;;;14.80;77.60;;;;;;5106955;28;20027;-55
2023/10/30 10:55:08;;;;;;;;;;;14.90;77.30;;;;;;5074923;28;20039;-55
2023/10/30 10:57:51;;;;;;;9.13;2.00;;;14.90;76.60;;;;;;5092023;28;19930;-53
2023/10/30 11:00:17;;;;;;;13.40;2.47;;;14.90;77.20;;;;;;5079434;28;20039;-51
2023/10/30 11:02:51;;;;;;;8.40;2.08;;;14.90;77.80;;;;;;5101518;28;20043;-53
2023/10/30 11:05:29;;;;;;;14.73;3.88;;;14.90;77.60;;;;;;5102798;28;20130;-52
2023/10/30 11:08:15;;;;;;;8.55;2.30;;;14.90;78.30;;;;;;5104479;28;20047;-55
2023/10/30 11:11:12;;;;;;;6.40;1.70;;;14.70;77.40;;;;;;5108269;28;20027;-50
2023/10/30 11:14:33;;;;;;;9.32;2.47;;;14.50;78.50;;;;;;5073167;28;20050;-48
2023/10/30 11:17:05;;;;;;;9.68;2.70;;;14.40;79.10;;;;;;5062069;28;20043;-50
2023/10/30 11:19:45;;;;;;;8.15;2.00;;;14.30;79.70;;;;;;5107021;27;20502;-48
2023/10/30 11:22:33;;;;;;;6.55;1.88;;;14.30;80.00;;;;;;5086154;28;20066;-50
2023/10/30 11:25:01;;;;;;;10.60;1.77;;;14.30;80.00;;;;;;5105146;28;20048;-48
2023/10/30 11:27:29;;;;;;;10.15;2.45;;;14.40;80.30;;;;;;5105964;28;20028;-49
2023/10/30 11:29:57;;;;;;;8.13;2.50;;;14.30;80.20;;;;;;5107796;28;20370;-49
2023/10/30 11:32:25;;;;;;;12.00;2.38;;;14.40;80.70;;;;;;5101591;28;20043;-48
2023/10/30 11:34:52;;;;;;;9.68;2.33;;;14.50;80.70;;;;;;5077971;28;20495;-50
2023/10/30 11:37:27;;;;;;;7.85;1.85;;;14.60;80.40;;;;;;5098754;28;20101;-49
2023/10/30 11:40:07;;;;;;;8.73;2.15;;;14.60;80.00;;;;;;5102063;28;20035;-48
2023/10/30 11:42:39;;;;;;;6.22;1.95;;;14.60;79.70;;;;;;5086756;28;20036;-47
2023/10/30 11:45:25;;;;;;;9.93;3.28;;;14.60;80.20;;;;;;5100736;28;20027;-52
2023/10/30 11:48:07;;;;;;;11.90;3.83;;;14.70;79.80;;;;;;5108951;28;20028;-47
2023/10/30 11:50:36;;;;;;;11.52;2.85;;;14.70;79.80;;;;;;5106148;28;20107;-50
2023/10/30 11:53:11;;;;;;;8.98;2.10;;;14.60;79.60;;;;;;5083504;28;20670;-48
2023/10/30 11:55:41;;;;;;;13.55;2.28;;;14.60;80.20;;;;;;5090772;28;20092;-50
2023/10/30 11:58:08;;;;;;;;;;;14.60;79.60;;;;;;5104415;28;20078;-50
2023/10/30 12:00:41;;;;;;;12.35;2.55;;;14.60;79.90;;;;;;5102686;28;20014;-52
2023/10/30 12:03:08;;;;;;;8.02;2.40;;;14.90;80.40;;;;;;5104011;28;20106;-51
2023/10/30 12:05:34;;;;;;;7.97;2.13;;;14.90;80.30;;;;;;5105731;28;20023;-49
2023/10/30 12:08:04;;;;;;;10.35;2.20;;;15.00;79.80;;;;;;5078778;28;20016;-52
2023/10/30 12:10:34;;;;;;;7.25;1.90;;;15.00;78.40;;;;;;5106604;28;20015;-50
2023/10/30 12:13:00;;;;;;;8.27;1.95;;;14.90;78.80;;;;;;5103484;28;20026;-48
2023/10/30 12:15:28;;;;;;;8.45;2.50;;;14.70;78.90;;;;;;5105388;28;20073;-49
2023/10/30 12:17:55;;;;;;;8.50;2.40;;;14.60;78.70;;;;;;5101524;28;20028;-49
2023/10/30 12:20:21;;;;;;;8.68;2.03;;;14.40;79.20;;;;;;5084801;28;20063;-52
2023/10/30 12:22:53;;;;;;;8.95;2.70;;;14.40;80.10;;;;;;5100385;28;20058;-51
2023/10/30 12:25:21;;;;;;;8.07;1.90;;;14.40;80.00;;;;;;5102325;28;20125;-51
2023/10/30 12:27:46;;;;;;;10.18;2.45;;;14.40;80.00;;;;;;5081109;28;20036;-47
2023/10/30 12:30:16;;;;;;;9.02;2.72;;;14.40;80.40;;;;;;5101319;28;20526;-51
2023/10/30 12:32:51;;;;;;;15.55;3.15;;;14.40;79.70;;;;;;5081957;28;20039;-48
2023/10/30 12:35:20;;;;;;;8.30;2.80;;;14.40;79.80;;;;;;5058104;28;20063;-48
2023/10/30 12:37:47;;;;;;;7.77;1.77;;;14.40;79.60;;;;;;5114957;28;20146;-50
2023/10/30 12:40:14;;;;;;;12.05;2.63;;;14.30;80.00;;;;;;5105452;28;20043;-48
2023/10/30 12:42:48;;;;;;;8.43;2.58;;;14.30;80.00;;;;;;5102158;28;20080;-47
2023/10/30 12:45:30;;;;;;;10.50;2.30;;;14.20;80.50;;;;;;5099592;28;20347;-47
2023/10/30 12:47:59;;;;;;;13.07;2.88;;;14.20;80.90;;;;;;5105853;28;20149;-52
2023/10/30 12:50:30;;;;;;;14.63;3.15;;;14.00;81.30;;;;;;5088311;28;20035;-50
2023/10/30 12:52:57;;;;;;;;;;;14.10;81.40;;;;;;5103381;28;20060;-48
2023/10/30 12:55:25;;;;;;;6.05;2.10;;;14.10;81.60;;;;;;5106154;28;20409;-51